Station: EBLG - 06/02/2023 02:50Z (il y a 15 minutes)
EBLG 060250Z 35004KT 310V020 1900 BR SCT002 BKN003 01/00 Q1042 TEMPO 1200 BCFG BKN002
Vent du 350º - 4 kt (vent de direction variable de 310º à 020º)
Visibilité: 1900 m (brume)
Ciel 50% couvert à 200 pieds - Ciel 75% couvert à 300 pieds
Température: +01ºC - Point de rosée: +00ºC - QNH: 1042 hPa
Temporairement
Visibilité: 1200 m - bancs de brouillard
Ciel 75% couvert à 200 pieds